Time;durP1;ratioP1;P1;durP2;ratioP2;P2;SDS_P1;SDS_P2;PMS_P1;PMS_P2;Temp;Humidity;BMP_temperature;BMP_pressure;BME280_temperature;BME280_humidity;BME280_pressure;Samples;Min_cycle;Max_cycle;Signal;HPM_P1;HPM_P2
2021/04/30 00:01:17;;;;;;;15.80;11.98;;;;;;;14.15;78.29;99882.03;5059403;28;20045;-73
2021/04/30 00:03:43;;;;;;;13.48;10.02;;;;;;;14.15;78.58;99889.91;5042963;28;20041;-73
2021/04/30 00:06:10;;;;;;;10.63;9.02;;;;;;;14.35;77.66;99880.63;5062931;28;20045;-72
2021/04/30 00:08:38;;;;;;;10.35;8.45;;;;;;;14.36;77.36;99875.25;5063806;28;20116;-72
2021/04/30 00:11:07;;;;;;;8.45;7.65;;;;;;;14.25;78.34;99883.06;5071820;28;20629;-73
2021/04/30 00:13:35;;;;;;;9.15;8.23;;;;;;;14.24;78.46;99888.41;5049949;28;20079;-72
2021/04/30 00:16:03;;;;;;;10.82;8.70;;;;;;;14.30;78.04;99887.97;5070396;28;20741;-73
2021/04/30 00:18:29;;;;;;;10.80;8.60;;;;;;;13.98;78.92;99880.59;5070575;28;20434;-73
2021/04/30 00:20:57;;;;;;;10.07;7.93;;;;;;;14.06;79.32;99888.78;5065781;28;20451;-73
2021/04/30 00:23:28;;;;;;;7.70;6.85;;;;;;;14.18;78.71;99894.09;5061683;28;20069;-73
2021/04/30 00:25:56;;;;;;;11.52;8.25;;;;;;;14.07;78.80;99893.06;5064726;28;20048;-73
2021/04/30 00:28:24;;;;;;;13.43;7.80;;;;;;;14.11;78.92;99898.91;5062069;28;20049;-73
2021/04/30 00:30:52;;;;;;;9.50;8.30;;;;;;;14.11;79.69;99888.44;5059510;28;20044;-73
2021/04/30 00:33:20;;;;;;;7.93;7.13;;;;;;;14.13;79.81;99895.25;5063897;28;20468;-74
2021/04/30 00:35:46;;;;;;;9.32;8.20;;;;;;;14.12;79.56;99888.34;5063426;28;20098;-73
2021/04/30 00:38:13;;;;;;;11.10;6.35;;;;;;;14.19;79.05;99893.97;5063155;28;20039;-73
2021/04/30 00:40:39;;;;;;;7.90;6.90;;;;;;;14.21;79.27;99886.00;5068313;28;20069;-74
2021/04/30 00:43:06;;;;;;;8.57;6.63;;;;;;;14.23;79.25;99886.75;5066740;28;20060;-72
2021/04/30 00:45:33;;;;;;;8.88;7.03;;;;;;;14.10;80.14;99892.84;5059156;28;20048;-72
2021/04/30 00:47:59;;;;;;;12.05;5.53;;;;;;;14.15;79.28;99887.28;5059162;28;20041;-73
2021/04/30 00:50:27;;;;;;;6.32;5.53;;;;;;;14.14;78.91;99891.69;5073313;28;20127;-72
2021/04/30 00:52:54;;;;;;;5.95;5.35;;;;;;;14.20;78.43;99893.03;5066724;28;20037;-73
2021/04/30 00:55:21;;;;;;;7.68;5.57;;;;;;;14.23;77.73;99899.84;5068045;28;20052;-72
2021/04/30 00:57:53;;;;;;;13.30;7.05;;;;;;;14.27;76.59;99902.13;5065814;28;20059;-73
2021/04/30 01:00:22;;;;;;;8.40;7.40;;;;;;;14.32;76.64;99904.44;5067183;28;20041;-72
2021/04/30 01:02:49;;;;;;;8.63;6.85;;;;;;;14.12;77.08;99903.22;5063221;28;20565;-72
2021/04/30 01:05:16;;;;;;;8.65;7.10;;;;;;;14.06;77.36;99898.38;5067890;28;20504;-73
2021/04/30 01:07:43;;;;;;;8.75;7.05;;;;;;;14.04;78.26;99898.50;5048301;28;20043;-72
2021/04/30 01:10:11;;;;;;;16.67;7.55;;;;;;;13.95;78.54;99907.00;5066008;28;20403;-73
2021/04/30 01:12:38;;;;;;;12.40;7.78;;;;;;;14.14;77.37;99904.78;5067423;28;20064;-72
2021/04/30 01:15:06;;;;;;;13.25;7.53;;;;;;;14.18;77.46;99901.97;5063873;28;20048;-73
2021/04/30 01:17:36;;;;;;;9.00;5.95;;;;;;;14.06;77.70;99904.50;5068012;28;20124;-73
2021/04/30 01:20:04;;;;;;;6.72;5.97;;;;;;;14.06;78.24;99899.25;5061088;28;20127;-72
2021/04/30 01:22:35;;;;;;;11.60;6.78;;;;;;;14.10;78.28;99903.31;5070282;28;20377;-72
2021/04/30 01:25:03;;;;;;;10.27;7.07;;;;;;;14.16;77.70;99902.88;5062557;28;20044;-72
2021/04/30 01:27:30;;;;;;;7.53;5.93;;;;;;;14.23;77.16;99898.06;5064840;28;20439;-73
2021/04/30 01:29:56;;;;;;;6.35;4.95;;;;;;;14.15;77.34;99900.38;5060623;28;20094;-73
2021/04/30 01:32:23;;;;;;;8.07;6.00;;;;;;;14.08;78.44;99899.97;5062011;28;20127;-73
2021/04/30 01:34:49;;;;;;;5.40;4.82;;;;;;;14.04;78.56;99893.28;5069005;28;20040;-72
2021/04/30 01:37:16;;;;;;;7.43;6.18;;;;;;;14.04;78.72;99893.28;5068632;28;20451;-72
2021/04/30 01:39:42;;;;;;;6.65;5.50;;;;;;;13.99;79.41;99895.38;5069879;28;20080;-72
2021/04/30 01:42:10;;;;;;;9.70;4.97;;;;;;;14.03;78.86;99893.38;5062582;28;20176;-72
2021/04/30 01:44:39;;;;;;;6.63;5.30;;;;;;;13.99;79.02;99891.91;5065409;28;20838;-72
2021/04/30 01:47:06;;;;;;;8.18;5.57;;;;;;;13.96;79.65;99898.22;5067743;28;20387;-73
2021/04/30 01:49:32;;;;;;;11.50;4.80;;;;;;;14.06;78.79;99903.63;5064880;28;20109;-73
2021/04/30 01:51:59;;;;;;;9.32;5.28;;;;;;;14.06;78.25;99904.50;5060897;28;20083;-74
2021/04/30 01:54:26;;;;;;;8.05;4.85;;;;;;;13.88;79.12;99916.25;5070567;28;20132;-70
2021/04/30 01:56:53;;;;;;;7.97;4.60;;;;;;;13.91;79.10;99916.03;5072943;28;20058;-71
2021/04/30 01:59:20;;;;;;;7.05;4.65;;;;;;;13.83;79.71;99918.34;5072816;28;20071;-70
2021/04/30 02:01:46;;;;;;;4.63;3.70;;;;;;;13.87;79.18;99914.56;5072318;28;20526;-68
2021/04/30 02:04:13;;;;;;;4.00;3.45;;;;;;;13.93;78.61;99911.53;5051851;28;20060;-69
2021/04/30 02:06:41;;;;;;;4.20;2.60;;;;;;;14.05;77.89;99917.69;5069734;28;20067;-70
2021/04/30 02:09:08;;;;;;;6.25;3.28;;;;;;;13.96;78.04;99929.66;5071374;28;20459;-70
2021/04/30 02:11:36;;;;;;;3.15;2.85;;;;;;;13.75;79.63;99925.91;5071023;28;20063;-73
2021/04/30 02:14:04;;;;;;;4.88;3.28;;;;;;;13.79;79.29;99916.88;5071672;28;20060;-74
2021/04/30 02:16:34;;;;;;;4.55;2.70;;;;;;;13.75;79.29;99916.25;5072256;28;20399;-71
2021/04/30 02:19:00;;;;;;;2.72;2.28;;;;;;;13.78;78.34;99916.03;5070105;28;20032;-72
2021/04/30 02:21:27;;;;;;;5.40;2.95;;;;;;;13.85;78.24;99908.59;5067902;28;20135;-72
2021/04/30 02:23:55;;;;;;;2.60;2.33;;;;;;;13.67;79.07;99908.06;5071844;28;20132;-73
2021/04/30 02:26:25;;;;;;;5.50;2.85;;;;;;;13.66;79.27;99916.03;5070805;28;20112;-73
2021/04/30 02:28:51;;;;;;;3.30;2.72;;;;;;;13.71;79.05;99913.94;5070436;28;20570;-73
2021/04/30 02:31:18;;;;;;;4.25;2.92;;;;;;;13.72;79.53;99923.47;5071004;28;20045;-73
2021/04/30 02:33:45;;;;;;;4.05;2.80;;;;;;;13.74;78.95;99926.81;5072692;28;20064;-73
2021/04/30 02:36:11;;;;;;;5.97;3.50;;;;;;;13.68;79.54;99919.38;5071956;28;20036;-73
2021/04/30 02:38:38;;;;;;;4.25;2.25;;;;;;;13.53;79.60;99916.88;5073108;28;20074;-73
2021/04/30 02:41:05;;;;;;;49.33;3.95;;;;;;;13.56;79.93;99910.56;5073113;28;20036;-74
2021/04/30 02:43:31;;;;;;;3.70;3.40;;;;;;;13.55;79.59;99917.59;5071903;28;20051;-74
2021/04/30 02:46:00;;;;;;;3.63;3.22;;;;;;;13.50;79.68;99919.69;5072861;28;20044;-73
2021/04/30 02:48:33;;;;;;;5.28;2.65;;;;;;;13.52;79.99;99920.41;5054149;28;20436;-73
2021/04/30 02:51:01;;;;;;;4.85;3.95;;;;;;;13.49;79.98;99925.88;5072136;28;20037;-73
2021/04/30 02:53:28;;;;;;;4.13;3.17;;;;;;;13.45;80.21;99923.56;5072645;28;20068;-72
2021/04/30 02:55:55;;;;;;;3.17;2.40;;;;;;;13.34;80.70;99917.25;5070431;28;20044;-72
2021/04/30 02:58:22;;;;;;;6.95;3.03;;;;;;;13.54;80.27;99918.56;5071865;28;20048;-72
2021/04/30 03:00:49;;;;;;;3.40;3.10;;;;;;;13.58;79.72;99917.41;5071924;28;20048;-72
2021/04/30 03:03:16;;;;;;;4.13;3.25;;;;;;;13.64;79.76;99918.78;5054629;28;20049;-72
2021/04/30 03:05:44;;;;;;;3.83;3.40;;;;;;;13.61;79.64;99914.56;5072166;28;20041;-72
2021/04/30 03:08:11;;;;;;;5.10;3.30;;;;;;;13.51;80.36;99928.38;5071774;28;20052;-72
2021/04/30 03:10:37;;;;;;;4.22;3.80;;;;;;;13.53;80.40;99919.50;5072647;28;20279;-72
2021/04/30 03:13:04;;;;;;;6.68;3.70;;;;;;;13.49;80.47;99931.13;5072167;28;20556;-71
2021/04/30 03:15:31;;;;;;;6.18;4.28;;;;;;;13.52;80.19;99935.28;5071851;28;20043;-71
2021/04/30 03:17:57;;;;;;;5.82;4.68;;;;;;;13.52;80.02;99941.34;5072162;28;20048;-71
2021/04/30 03:20:23;;;;;;;7.65;6.07;;;;;;;13.49;80.27;99940.75;5071841;28;20131;-71
2021/04/30 03:22:50;;;;;;;9.07;6.75;;;;;;;13.61;80.28;99945.16;5071864;28;20057;-71
2021/04/30 03:25:17;;;;;;;9.68;7.72;;;;;;;13.68;80.13;99940.34;5072265;28;20067;-71
2021/04/30 03:27:45;;;;;;;11.50;8.35;;;;;;;13.69;79.91;99945.50;5072464;28;20046;-73
2021/04/30 03:30:13;;;;;;;14.95;7.95;;;;;;;13.66;81.04;99948.31;5071556;28;20532;-73
2021/04/30 03:32:40;;;;;;;11.50;9.23;;;;;;;13.62;81.42;99937.19;5072220;28;20387;-74
2021/04/30 03:35:08;;;;;;;15.77;10.90;;;;;;;13.66;81.47;99940.44;5071780;28;20052;-74
2021/04/30 03:37:34;;;;;;;15.25;13.18;;;;;;;13.70;82.02;99938.47;5071730;28;20051;-73
2021/04/30 03:40:02;;;;;;;16.42;13.88;;;;;;;13.75;81.87;99933.75;5071956;28;20028;-72
2021/04/30 03:42:29;;;;;;;15.90;14.23;;;;;;;13.92;80.92;99927.34;5075347;28;20041;-71
2021/04/30 03:44:55;;;;;;;18.27;15.38;;;;;;;13.83;81.53;99934.91;5074949;28;20075;-71
2021/04/30 03:47:22;;;;;;;22.38;17.05;;;;;;;13.82;81.75;99932.38;5075903;28;20376;-72
2021/04/30 03:49:48;;;;;;;21.55;16.13;;;;;;;13.82;82.14;99938.47;5057729;28;20032;-71
2021/04/30 03:52:14;;;;;;;21.98;17.25;;;;;;;13.75;82.71;99946.84;5074624;28;20498;-71
2021/04/30 03:54:41;;;;;;;23.70;18.10;;;;;;;13.77;82.13;99952.81;5075585;28;20044;-71
2021/04/30 03:57:07;;;;;;;23.00;17.50;;;;;;;13.78;82.20;99949.25;5075271;28;20044;-71
2021/04/30 03:59:34;;;;;;;22.85;18.52;;;;;;;13.73;82.52;99948.72;5062773;28;20068;-72
2021/04/30 04:02:00;;;;;;;25.48;18.27;;;;;;;13.73;82.72;99959.19;5060662;28;20084;-72
2021/04/30 04:04:28;;;;;;;21.35;18.30;;;;;;;13.77;82.77;99950.19;5062991;28;20450;-72
2021/04/30 04:06:54;;;;;;;25.27;19.00;;;;;;;13.79;82.37;99938.66;5064049;28;20075;-72
2021/04/30 04:09:20;;;;;;;22.38;19.05;;;;;;;13.76;83.02;99932.81;5063659;28;20503;-72
2021/04/30 04:11:47;;;;;;;23.50;18.90;;;;;;;13.78;82.33;99936.97;5064209;28;20949;-72
2021/04/30 04:14:13;;;;;;;23.30;17.92;;;;;;;13.72;82.45;99936.56;5068190;28;20132;-72
2021/04/30 04:16:40;;;;;;;20.95;17.52;;;;;;;13.73;82.58;99946.09;5064833;28;20493;-72
2021/04/30 04:19:06;;;;;;;28.77;21.90;;;;;;;13.73;82.81;99943.47;5064293;28;20055;-73
2021/04/30 04:21:33;;;;;;;25.08;20.08;;;;;;;13.77;82.87;99952.81;5067833;28;20056;-73
2021/04/30 04:23:59;;;;;;;24.98;19.50;;;;;;;13.76;82.76;99948.53;5064229;28;20442;-73
2021/04/30 04:26:25;;;;;;;24.35;19.45;;;;;;;13.79;82.45;99953.53;5063825;28;20109;-73
2021/04/30 04:28:52;;;;;;;23.33;17.88;;;;;;;13.72;83.32;99952.28;5065378;28;20078;-74
2021/04/30 04:31:18;;;;;;;20.58;18.35;;;;;;;13.74;83.33;99950.38;5060509;28;20033;-73
2021/04/30 04:33:45;;;;;;;21.70;18.13;;;;;;;13.78;83.28;99955.31;5062226;28;20068;-73
2021/04/30 04:36:11;;;;;;;22.63;18.08;;;;;;;13.84;83.08;99957.53;5070870;28;20045;-73
2021/04/30 04:38:38;;;;;;;25.30;19.20;;;;;;;13.78;83.29;99963.19;5069575;28;20045;-73
2021/04/30 04:41:04;;;;;;;23.52;20.02;;;;;;;13.89;82.58;99967.69;5077654;28;20067;-73
2021/04/30 04:43:30;;;;;;;23.35;19.52;;;;;;;13.79;83.83;99969.25;5074827;28;20052;-73
2021/04/30 04:45:57;;;;;;;24.75;20.48;;;;;;;13.81;83.39;99983.94;5070783;28;20091;-73
2021/04/30 04:48:24;;;;;;;22.83;20.05;;;;;;;13.86;83.22;99981.03;5064446;28;20033;-73
2021/04/30 04:50:51;;;;;;;27.88;20.90;;;;;;;13.87;83.34;99988.78;5066641;28;20040;-74
2021/04/30 04:53:22;;;;;;;26.23;20.83;;;;;;;14.01;82.66;99985.22;5067105;28;20063;-74
2021/04/30 04:56:06;;;;;;;26.77;22.30;;;;;;;13.91;83.15;99981.56;5068142;28;20131;-75
2021/04/30 04:58:32;;;;;;;24.40;21.80;;;;;;;14.04;81.88;99990.25;5064920;28;20032;-73
2021/04/30 05:00:59;;;;;;;25.70;22.10;;;;;;;14.01;81.88;99985.22;5061940;28;20041;-73
2021/04/30 05:03:26;;;;;;;26.45;21.90;;;;;;;13.92;83.35;99998.09;5064309;28;20040;-74
2021/04/30 05:05:54;;;;;;;24.70;20.10;;;;;;;13.88;83.67;99994.84;5065873;28;20059;-74
2021/04/30 05:08:20;;;;;;;28.08;22.25;;;;;;;13.96;83.64;99996.97;5065101;28;20032;-71
2021/04/30 05:10:47;;;;;;;24.38;20.65;;;;;;;13.99;83.63;100001.97;5063553;28;20144;-70
2021/04/30 05:13:13;;;;;;;26.30;22.92;;;;;;;13.97;84.21;100003.88;5070684;28;20037;-74
2021/04/30 05:15:49;;;;;;;29.77;21.50;;;;;;;13.89;84.70;100001.75;5062291;28;20037;-73
2021/04/30 05:18:15;;;;;;;25.88;20.65;;;;;;;13.98;84.45;100006.38;5067415;28;20044;-72
2021/04/30 05:20:42;;;;;;;25.60;22.55;;;;;;;14.07;84.57;100004.94;5073632;28;20445;-72
2021/04/30 05:23:08;;;;;;;32.95;24.83;;;;;;;14.08;84.49;100011.84;5077078;28;20124;-75
2021/04/30 05:25:35;;;;;;;32.40;25.08;;;;;;;14.04;85.21;100016.44;5077456;28;20032;-75
2021/04/30 05:28:01;;;;;;;31.50;24.70;;;;;;;14.11;84.83;100012.47;5073868;28;20098;-75
2021/04/30 05:30:28;;;;;;;28.52;24.38;;;;;;;14.11;84.79;100011.63;5073222;28;20029;-67
2021/04/30 05:32:54;;;;;;;35.25;26.83;;;;;;;14.11;85.23;100022.97;5052939;28;20368;-65
2021/04/30 05:35:20;;;;;;;28.63;20.83;;;;;;;14.15;85.17;100018.34;5073472;28;20071;-67
2021/04/30 05:37:47;;;;;;;31.08;22.60;;;;;;;14.18;85.42;100026.00;5073573;28;20502;-66
2021/04/30 05:40:13;;;;;;;28.73;22.63;;;;;;;14.18;84.29;100025.16;5079013;28;20409;-67
2021/04/30 05:42:41;;;;;;;23.48;19.92;;;;;;;14.29;83.81;100027.88;5081122;28;20059;-63
2021/04/30 05:45:10;;;;;;;24.67;18.05;;;;;;;14.32;84.06;100027.66;5077043;28;20040;-77
2021/04/30 05:47:37;;;;;;;26.75;19.55;;;;;;;14.41;83.98;100030.50;5055696;28;20086;-77
2021/04/30 05:50:05;;;;;;;28.65;21.98;;;;;;;14.44;84.48;100032.06;5074606;28;20039;-77
2021/04/30 05:52:31;;;;;;;26.27;20.42;;;;;;;14.47;85.02;100026.63;5072887;28;20126;-80
2021/04/30 05:54:59;;;;;;;26.20;19.40;;;;;;;14.66;84.93;100021.78;5072895;28;20544;-78
2021/04/30 05:57:25;;;;;;;24.52;21.88;;;;;;;15.06;84.62;100012.84;5072211;28;20080;-74
2021/04/30 05:59:52;;;;;;;34.83;21.65;;;;;;;15.48;84.91;100014.13;5073183;28;20036;-74
2021/04/30 06:02:18;;;;;;;24.05;20.25;;;;;;;15.74;79.51;100011.38;5072567;28;20549;-73
2021/04/30 06:04:45;;;;;;;26.50;21.05;;;;;;;16.24;79.69;100005.75;5073074;28;20115;-75
2021/04/30 06:07:11;;;;;;;31.90;24.30;;;;;;;16.61;77.89;99996.75;5073069;28;20163;-75
2021/04/30 06:09:38;;;;;;;27.67;21.55;;;;;;;16.71;76.80;99998.56;5070488;28;20439;-74
2021/04/30 06:12:05;;;;;;;30.15;24.95;;;;;;;17.06;76.65;100005.44;5070462;28;20043;-75
2021/04/30 06:14:33;;;;;;;32.03;27.70;;;;;;;17.08;75.83;100011.41;5070934;28;20376;-75
2021/04/30 06:17:03;;;;;;;33.38;25.50;;;;;;;17.07;76.01;100015.03;5053189;28;20040;-75
2021/04/30 06:19:30;;;;;;;31.80;27.42;;;;;;;17.17;74.93;100021.22;5071712;28;20499;-74
2021/04/30 06:21:57;;;;;;;32.03;26.70;;;;;;;17.07;75.61;100014.19;5072231;28;20040;-74
2021/04/30 06:24:24;;;;;;;33.97;27.15;;;;;;;17.10;74.96;100014.78;5071721;28;20082;-75
2021/04/30 06:26:51;;;;;;;33.08;29.27;;;;;;;17.04;75.61;100020.53;5072979;28;20048;-74
2021/04/30 06:29:17;;;;;;;33.85;26.55;;;;;;;16.82;74.61;100020.56;5072368;28;20048;-74
2021/04/30 06:31:44;;;;;;;35.42;27.48;;;;;;;16.64;76.40;100026.31;5072683;28;20068;-75
2021/04/30 06:34:11;;;;;;;30.65;26.13;;;;;;;16.83;76.23;100016.97;5072349;28;20057;-75
2021/04/30 06:36:38;;;;;;;29.90;26.70;;;;;;;17.23;75.74;100022.50;5072414;28;20140;-75
2021/04/30 06:39:05;;;;;;;36.05;26.15;;;;;;;17.22;74.72;100020.84;5068027;28;20487;-75
2021/04/30 06:41:32;;;;;;;25.27;22.58;;;;;;;17.47;71.99;100024.94;5071954;28;20119;-75
2021/04/30 06:44:00;;;;;;;26.75;22.63;;;;;;;17.81;71.61;100030.94;5074687;28;20488;-75
2021/04/30 06:46:27;;;;;;;28.38;23.77;;;;;;;18.59;71.60;100032.19;5073337;28;20095;-75
2021/04/30 06:48:55;;;;;;;36.95;26.95;;;;;;;19.07;67.75;100035.00;5073317;28;20059;-75
2021/04/30 06:51:21;;;;;;;32.65;25.48;;;;;;;19.32;68.16;100041.56;5083167;28;20079;-75
2021/04/30 06:53:48;;;;;;;31.90;24.05;;;;;;;20.26;64.72;100039.16;5078914;28;20044;-75
2021/04/30 06:56:15;;;;;;;33.00;26.05;;;;;;;20.21;63.22;100040.56;5077208;28;20048;-75
2021/04/30 06:58:41;;;;;;;29.50;26.40;;;;;;;20.13;65.06;100036.81;5075962;28;20037;-75
2021/04/30 07:01:09;;;;;;;29.95;26.60;;;;;;;20.69;63.49;100035.13;5075493;28;20114;-75
2021/04/30 07:03:37;;;;;;;341.63;54.75;;;;;;;20.02;64.55;100038.78;5075528;28;20033;-75
2021/04/30 07:06:04;;;;;;;78.38;29.70;;;;;;;21.27;61.44;100026.81;5073243;28;20056;-75
2021/04/30 07:08:30;;;;;;;35.42;27.15;;;;;;;22.14;58.72;100033.22;5072766;28;20036;-75
2021/04/30 07:10:56;;;;;;;30.80;27.50;;;;;;;22.59;57.01;100029.50;5072226;28;20064;-75
2021/04/30 07:13:23;;;;;;;27.40;22.45;;;;;;;23.18;55.92;100027.72;5078473;28;20048;-75
2021/04/30 07:15:49;;;;;;;29.13;25.02;;;;;;;23.60;54.29;100019.63;5076917;28;20426;-75
2021/04/30 07:18:16;;;;;;;25.17;22.48;;;;;;;24.00;51.82;100018.78;5080659;28;20113;-75
2021/04/30 07:20:43;;;;;;;27.17;23.45;;;;;;;24.00;52.14;100012.63;5080265;28;20037;-75
2021/04/30 07:23:10;;;;;;;27.55;24.52;;;;;;;24.29;51.10;100020.91;5083143;28;20041;-75
2021/04/30 07:25:36;;;;;;;34.80;27.77;;;;;;;23.59;52.68;100011.78;5071985;28;20028;-75
2021/04/30 07:28:03;;;;;;;30.65;26.40;;;;;;;23.53;52.67;100022.09;5064725;28;20040;-75
2021/04/30 07:30:29;;;;;;;33.20;26.48;;;;;;;23.47;53.94;100027.25;5069421;28;20437;-75
2021/04/30 07:32:55;;;;;;;29.90;23.60;;;;;;;24.01;52.94;100022.25;5066802;28;20462;-76
2021/04/30 07:35:39;;;;;;;41.05;26.30;;;;;;;23.95;51.86;100026.44;5064730;28;20041;-75
2021/04/30 07:38:06;;;;;;;30.85;26.42;;;;;;;22.71;55.10;100030.88;5061946;28;20053;-76
2021/04/30 07:40:33;;;;;;;29.15;23.25;;;;;;;23.47;54.51;100025.41;5073056;28;20314;-76
2021/04/30 07:42:59;;;;;;;27.92;24.92;;;;;;;23.30;53.66;100017.59;5067050;28;20170;-76
2021/04/30 07:45:26;;;;;;;31.50;23.10;;;;;;;23.21;53.31;100016.75;5063856;28;20032;-75
2021/04/30 07:47:53;;;;;;;27.13;23.90;;;;;;;23.41;53.49;100023.41;5072467;28;20069;-74
2021/04/30 07:50:21;;;;;;;27.55;24.35;;;;;;;22.84;54.23;100023.25;5068278;28;20036;-75
2021/04/30 07:52:48;;;;;;;33.67;24.77;;;;;;;22.04;56.14;100032.44;5063374;28;20072;-75
2021/04/30 07:55:14;;;;;;;34.92;26.17;;;;;;;21.68;56.87;100019.28;5067278;28;20402;-75
2021/04/30 07:57:41;;;;;;;33.33;24.17;;;;;;;21.57;57.73;100007.09;5051741;28;20068;-75
2021/04/30 08:00:08;;;;;;;26.08;23.20;;;;;;;21.77;57.12;100006.88;5068424;28;20481;-75
2021/04/30 08:02:41;;;;;;;41.03;24.80;;;;;;;22.53;55.64;100008.84;5070354;28;20047;-76
2021/04/30 08:05:09;;;;;;;26.63;23.92;;;;;;;22.79;55.73;100014.94;5066401;28;20044;-75
2021/04/30 08:07:36;;;;;;;39.10;26.38;;;;;;;22.40;56.04;100015.44;5068538;28;20086;-75
2021/04/30 08:10:05;;;;;;;33.60;27.55;;;;;;;22.02;56.84;100019.34;5068824;28;20119;-75
2021/04/30 08:12:31;;;;;;;34.45;25.50;;;;;;;22.03;57.12;100017.53;5065819;28;20487;-76
2021/04/30 08:14:58;;;;;;;29.05;25.85;;;;;;;22.54;56.82;100015.84;5069450;28;20040;-76
2021/04/30 08:17:25;;;;;;;29.92;26.50;;;;;;;23.29;54.98;100011.44;5064520;28;20119;-72
2021/04/30 08:19:57;;;;;;;42.10;34.45;;;;;;;24.58;51.61;100002.66;5075155;28;20118;-72
2021/04/30 08:22:27;;;;;;;35.65;24.13;;;;;;;24.69;48.93;100019.09;5073384;28;20127;-72
2021/04/30 08:24:54;;;;;;;26.50;21.65;;;;;;;25.20;48.87;100019.53;5073522;28;20045;-75
2021/04/30 08:27:22;;;;;;;32.70;24.58;;;;;;;25.20;49.33;100024.03;5067749;28;20070;-75
2021/04/30 08:29:49;;;;;;;27.15;23.48;;;;;;;25.13;49.86;100023.06;5063591;28;20052;-75
2021/04/30 08:32:17;;;;;;;29.23;25.17;;;;;;;24.83;49.19;100025.56;5066709;28;20044;-76
2021/04/30 08:34:44;;;;;;;42.30;24.00;;;;;;;23.84;50.52;100028.63;5062121;28;20527;-76
2021/04/30 08:37:12;;;;;;;32.85;20.60;;;;;;;24.45;50.21;100019.19;5068048;28;20041;-73
2021/04/30 08:39:40;;;;;;;25.90;19.65;;;;;;;25.40;47.64;100027.88;5061416;28;20508;-73
2021/04/30 08:42:07;;;;;;;22.50;17.83;;;;;;;24.61;47.58;100028.97;5067989;28;20471;-74
2021/04/30 08:44:36;;;;;;;21.83;17.85;;;;;;;24.66;47.00;100024.81;5059574;28;20115;-76
2021/04/30 08:47:04;;;;;;;18.30;13.80;;;;;;;25.04;45.79;100041.78;5067830;28;20501;-73
2021/04/30 08:49:31;;;;;;;18.20;14.90;;;;;;;25.70;45.03;100054.69;5065027;28;20041;-73
2021/04/30 08:51:57;;;;;;;18.50;14.93;;;;;;;25.48;44.76;100059.84;5064197;28;20060;-73
2021/04/30 08:54:25;;;;;;;18.48;12.75;;;;;;;24.97;45.71;100072.78;5067212;28;20052;-76
2021/04/30 08:57:00;;;;;;;21.02;12.25;;;;;;;25.63;45.46;100070.59;5068468;28;20044;-76
2021/04/30 08:59:27;;;;;;;21.92;14.10;;;;;;;25.47;45.76;100066.22;5068190;28;20067;-74
2021/04/30 09:01:53;;;;;;;18.75;12.77;;;;;;;24.77;46.59;100066.25;5061593;28;20048;-73
2021/04/30 09:04:21;;;;;;;18.65;14.25;;;;;;;24.11;48.88;100062.84;5065904;28;20127;-76
2021/04/30 09:06:47;;;;;;;21.25;14.35;;;;;;;24.18;50.51;100063.00;5061685;28;20052;-76
2021/04/30 09:09:16;;;;;;;28.63;18.40;;;;;;;24.28;50.36;100053.84;5063204;28;20036;-76
2021/04/30 09:11:54;;;;;;;19.25;13.88;;;;;;;23.82;50.16;100058.06;5069018;28;20036;-76
2021/04/30 09:14:37;;;;;;;24.98;13.90;;;;;;;23.31;51.54;100059.97;5069024;28;20041;-76
2021/04/30 09:17:05;;;;;;;26.88;14.80;;;;;;;22.88;51.80;100061.00;5064482;28;20477;-75
2021/04/30 09:19:47;;;;;;;17.45;12.18;;;;;;;23.09;52.63;100057.94;5065035;28;20079;-75
2021/04/30 09:22:30;;;;;;;19.45;15.88;;;;;;;22.98;53.33;100046.59;5073636;28;20037;-75
2021/04/30 09:25:03;;;;;;;30.92;16.42;;;;;;;22.36;54.45;100045.97;5059971;28;20041;-75
2021/04/30 09:27:41;;;;;;;40.35;16.52;;;;;;;22.34;55.28;100044.47;5062051;28;20060;-76
2021/04/30 09:30:26;;;;;;;31.48;20.25;;;;;;;22.68;53.97;100042.63;5062542;28;20041;-75
2021/04/30 09:32:59;;;;;;;18.92;14.50;;;;;;;22.51;53.27;100058.66;5064424;28;20036;-75
2021/04/30 09:35:30;;;;;;;21.30;17.48;;;;;;;22.63;54.13;100057.38;5066546;28;20126;-76
2021/04/30 09:37:57;;;;;;;22.75;16.80;;;;;;;22.60;53.73;100052.41;5066004;28;20082;-75
2021/04/30 09:40:30;;;;;;;29.85;25.85;;;;;;;22.63;55.56;100052.91;5061920;28;20384;-76
2021/04/30 09:43:04;;;;;;;32.30;25.42;;;;;;;22.69;55.60;100052.28;5063435;28;20063;-76
2021/04/30 09:45:32;;;;;;;30.15;21.20;;;;;;;22.58;53.94;100043.75;5067772;28;20097;-75
2021/04/30 09:48:03;;;;;;;28.10;21.33;;;;;;;22.63;56.07;100030.81;5061022;28;20044;-75
2021/04/30 09:50:30;;;;;;;33.65;24.27;;;;;;;22.08;56.34;100049.75;5061286;28;20049;-75
2021/04/30 09:52:58;;;;;;;29.30;25.33;;;;;;;22.16;56.55;100048.00;5060788;28;20033;-76
2021/04/30 09:56:01;;;;;;;27.73;22.33;;;;;;;21.90;56.38;100047.13;5061405;28;20478;-75
2021/04/30 09:58:29;;;;;;;26.77;20.02;;;;;;;22.09;56.53;100054.88;5037006;28;20055;-75
2021/04/30 10:00:59;;;;;;;26.25;20.30;;;;;;;22.17;54.72;100051.50;5057566;28;20114;-75
2021/04/30 10:03:28;;;;;;;33.30;23.27;;;;;;;22.08;56.18;100060.34;5067392;28;20110;-76
2021/04/30 10:05:57;;;;;;;35.67;20.58;;;;;;;22.19;56.17;100057.47;5061795;28;20125;-75
2021/04/30 10:08:24;;;;;;;39.88;25.88;;;;;;;22.20;56.15;100043.22;5066835;28;20044;-75
2021/04/30 10:10:50;;;;;;;27.65;17.58;;;;;;;22.28;55.12;100053.06;5066371;28;20095;-75
2021/04/30 10:13:36;;;;;;;21.40;16.90;;;;;;;21.98;55.10;100042.69;5065448;28;20202;-75
2021/04/30 10:16:03;;;;;;;25.85;19.27;;;;;;;21.90;55.07;100045.31;5070439;28;20040;-76
2021/04/30 10:18:30;;;;;;;23.10;16.67;;;;;;;21.86;54.17;100049.25;5063043;28;20143;-76
2021/04/30 10:20:56;;;;;;;24.73;16.27;;;;;;;22.01;54.99;100046.88;5061228;28;20041;-75
2021/04/30 10:23:24;;;;;;;27.20;15.85;;;;;;;22.18;54.17;100038.06;5065095;28;20123;-75
2021/04/30 10:25:52;;;;;;;24.77;18.42;;;;;;;22.18;54.28;100037.22;5062403;28;20127;-76
2021/04/30 10:28:27;;;;;;;23.10;17.08;;;;;;;22.13;54.53;100039.53;5063846;28;20089;-76
2021/04/30 10:31:06;;;;;;;21.63;19.30;;;;;;;22.05;54.75;100042.06;5059389;28;20862;-75
2021/04/30 10:33:53;;;;;;;22.42;17.75;;;;;;;22.13;54.25;100042.16;5062075;28;20396;-74
2021/04/30 10:36:29;;;;;;;21.05;17.02;;;;;;;21.99;53.76;100048.84;5060358;28;20438;-75
2021/04/30 10:38:59;;;;;;;24.00;17.55;;;;;;;22.06;55.05;100044.59;5062806;28;20047;-75
2021/04/30 10:41:49;;;;;;;30.95;20.95;;;;;;;22.19;56.53;100036.22;5061544;28;20075;-76
2021/04/30 10:44:31;;;;;;;24.08;20.42;;;;;;;22.06;55.67;100038.47;5066799;28;20443;-75
2021/04/30 10:47:07;;;;;;;30.25;20.73;;;;;;;22.00;57.00;100047.88;5065298;28;20476;-75
2021/04/30 10:49:36;;;;;;;29.08;21.75;;;;;;;22.10;56.52;100047.75;5066223;28;20510;-76
2021/04/30 10:52:16;;;;;;;25.52;19.30;;;;;;;21.90;57.22;100047.97;5067781;28;20598;-75
2021/04/30 10:54:58;;;;;;;26.20;20.70;;;;;;;21.95;57.24;100058.94;5062284;28;20072;-73
2021/04/30 10:57:24;;;;;;;24.73;17.58;;;;;;;21.76;56.96;100053.81;5060538;28;20055;-75
2021/04/30 10:59:52;;;;;;;23.27;18.08;;;;;;;21.64;57.11;100039.97;5065743;28;20045;-75
2021/04/30 11:02:24;;;;;;;20.48;17.08;;;;;;;21.74;57.39;100036.38;5056914;28;20048;-76
2021/04/30 11:05:21;;;;;;;21.05;18.05;;;;;;;21.84;56.49;100022.03;5063809;28;20044;-75
2021/04/30 11:07:52;;;;;;;23.55;17.08;;;;;;;21.63;57.03;100006.47;5055967;28;20055;-75
2021/04/30 11:10:26;;;;;;;21.05;16.52;;;;;;;21.70;57.30;99993.41;5070875;28;20064;-76
2021/04/30 11:13:09;;;;;;;23.85;16.27;;;;;;;21.78;57.45;99982.84;5071014;28;20075;-75
2021/04/30 11:15:45;;;;;;;15.13;12.30;;;;;;;21.95;56.13;99983.81;5071686;28;20037;-76
2021/04/30 11:18:21;;;;;;;17.65;12.65;;;;;;;21.87;53.21;99989.88;5067335;28;20037;-76
2021/04/30 11:21:12;;;;;;;17.08;12.85;;;;;;;21.85;53.02;99986.56;5059898;28;20491;-75
2021/04/30 11:23:47;;;;;;;15.82;10.52;;;;;;;21.95;53.85;99999.72;5067605;28;20559;-74